createdAt,value
2022-12-18T00:00:06.109Z,77.88
2022-12-18T00:03:01.986Z,77.80
2022-12-18T00:05:30.577Z,78.07
2022-12-18T00:07:58.510Z,77.96
2022-12-18T00:10:26.721Z,78.07
2022-12-18T00:12:54.718Z,77.99
2022-12-18T00:15:22.723Z,77.92
2022-12-18T00:17:51.255Z,78.10
2022-12-18T00:20:24.773Z,78.00
2022-12-18T00:22:54.084Z,77.88
2022-12-18T00:25:22.341Z,78.17
2022-12-18T00:27:50.287Z,77.97
2022-12-18T00:30:19.517Z,78.11
2022-12-18T00:32:47.429Z,77.97
2022-12-18T00:35:15.307Z,78.25
2022-12-18T00:37:43.766Z,78.26
2022-12-18T00:40:13.588Z,78.15
2022-12-18T00:42:56.676Z,77.92
2022-12-18T00:45:27.445Z,77.82
2022-12-18T00:47:56.736Z,78.03
2022-12-18T00:50:26.174Z,77.78
2022-12-18T00:52:54.115Z,77.59
2022-12-18T00:55:21.928Z,77.67
2022-12-18T00:57:52.957Z,77.61
2022-12-18T01:00:21.662Z,77.65
2022-12-18T01:02:49.697Z,77.65
2022-12-18T01:05:18.209Z,77.59
2022-12-18T01:07:46.272Z,77.56
2022-12-18T01:10:14.712Z,77.68
2022-12-18T01:12:42.723Z,77.70
2022-12-18T01:15:13.996Z,77.52
2022-12-18T01:17:42.560Z,77.77
2022-12-18T01:20:13.190Z,77.56
2022-12-18T01:22:41.436Z,77.37
2022-12-18T01:25:09.860Z,77.57
2022-12-18T01:27:38.037Z,77.59
2022-12-18T01:30:06.775Z,77.87
2022-12-18T01:32:34.687Z,77.90
2022-12-18T01:35:04.804Z,77.53
2022-12-18T01:37:32.950Z,77.86
2022-12-18T01:40:01.041Z,77.64
2022-12-18T01:42:29.472Z,78.01
2022-12-18T01:45:06.027Z,77.92
2022-12-18T01:47:50.872Z,77.96
2022-12-18T01:50:23.958Z,78.11
2022-12-18T01:52:59.445Z,78.03
2022-12-18T01:55:32.019Z,78.01
2022-12-18T01:58:01.701Z,78.36
2022-12-18T02:00:30.475Z,78.32
2022-12-18T02:02:58.636Z,78.27
2022-12-18T02:05:48.318Z,78.38
2022-12-18T02:08:25.896Z,78.32
2022-12-18T02:11:23.363Z,78.18
2022-12-18T02:14:21.740Z,78.20
2022-12-18T02:16:57.321Z,78.06
2022-12-18T02:19:45.734Z,78.02
2022-12-18T02:22:30.913Z,77.92
2022-12-18T02:25:17.471Z,78.07
2022-12-18T02:27:50.303Z,78.02
2022-12-18T02:30:20.215Z,78.06
2022-12-18T02:32:54.624Z,77.74
2022-12-18T02:35:30.519Z,77.91
2022-12-18T02:38:00.213Z,77.76
2022-12-18T02:40:31.504Z,77.69
2022-12-18T02:43:11.686Z,77.47
2022-12-18T02:45:55.916Z,77.53
2022-12-18T02:48:29.853Z,77.68
2022-12-18T02:51:24.700Z,77.69
2022-12-18T02:54:03.871Z,77.51
2022-12-18T02:56:40.040Z,77.71
2022-12-18T02:59:16.698Z,77.76
2022-12-18T03:02:03.082Z,77.85
2022-12-18T03:04:49.876Z,77.78
2022-12-18T03:07:39.115Z,77.54
2022-12-18T03:10:14.758Z,77.56
2022-12-18T03:12:51.411Z,77.60
2022-12-18T03:15:31.872Z,77.41
2022-12-18T03:18:24.400Z,77.26
2022-12-18T03:20:57.095Z,77.26
2022-12-18T03:23:29.360Z,77.25
2022-12-18T03:26:07.163Z,77.28
2022-12-18T03:28:43.219Z,77.36
2022-12-18T03:31:15.329Z,77.58
2022-12-18T03:33:55.471Z,77.37
2022-12-18T03:36:28.064Z,77.47
2022-12-18T03:38:56.153Z,77.46
2022-12-18T03:41:34.813Z,77.18
2022-12-18T03:44:51.132Z,77.18
2022-12-18T03:47:45.515Z,77.17
2022-12-18T03:50:20.991Z,77.36
2022-12-18T03:53:38.728Z,77.21
2022-12-18T03:56:09.724Z,77.19
2022-12-18T03:58:43.028Z,77.33
2022-12-18T04:01:32.305Z,77.50
2022-12-18T04:04:03.324Z,77.19
2022-12-18T04:06:37.026Z,77.27
2022-12-18T04:09:06.181Z,77.29
2022-12-18T04:11:37.286Z,77.03
2022-12-18T04:14:07.340Z,77.10
2022-12-18T04:16:35.745Z,76.99
2022-12-18T04:19:06.189Z,77.24
2022-12-18T04:21:39.534Z,77.21
2022-12-18T04:24:07.963Z,77.27
2022-12-18T04:26:36.586Z,77.28
2022-12-18T04:29:31.299Z,77.23
2022-12-18T04:31:59.344Z,77.12
2022-12-18T04:34:27.666Z,77.30
2022-12-18T04:36:56.182Z,77.18
2022-12-18T04:39:25.333Z,77.17
2022-12-18T04:41:55.484Z,77.00
2022-12-18T04:44:23.975Z,77.06
2022-12-18T04:46:51.914Z,77.03
2022-12-18T04:49:20.280Z,76.69
2022-12-18T04:51:48.580Z,76.41
2022-12-18T04:54:17.083Z,76.59
2022-12-18T04:56:44.944Z,76.50
2022-12-18T04:59:13.237Z,76.66
2022-12-18T05:01:41.420Z,76.32
2022-12-18T05:04:10.027Z,76.74
2022-12-18T05:06:38.464Z,76.64
2022-12-18T05:09:06.540Z,76.86
2022-12-18T05:11:34.701Z,76.81
2022-12-18T05:14:03.200Z,76.74
2022-12-18T05:16:31.248Z,76.76
2022-12-18T05:18:59.077Z,76.81
2022-12-18T05:21:27.641Z,76.62
2022-12-18T05:23:55.542Z,76.80
2022-12-18T05:26:24.252Z,76.51
2022-12-18T05:28:52.744Z,76.81
2022-12-18T05:31:20.764Z,76.61
2022-12-18T05:33:48.685Z,76.49
2022-12-18T05:36:17.448Z,76.51
2022-12-18T05:38:45.294Z,76.86
2022-12-18T05:41:13.173Z,76.68
2022-12-18T05:43:42.632Z,76.69
2022-12-18T05:46:16.254Z,76.85
2022-12-18T05:48:45.862Z,76.89
2022-12-18T05:51:19.251Z,76.79
2022-12-18T05:53:48.081Z,76.47
2022-12-18T05:56:20.275Z,76.62
2022-12-18T05:58:52.052Z,76.59
2022-12-18T06:01:23.116Z,76.49
2022-12-18T06:03:51.508Z,76.42
2022-12-18T06:06:23.863Z,76.18
2022-12-18T06:08:52.391Z,76.17
2022-12-18T06:11:23.829Z,76.32
2022-12-18T06:13:58.138Z,76.21
2022-12-18T06:16:28.342Z,76.05
2022-12-18T06:19:01.104Z,75.97
2022-12-18T06:21:30.846Z,76.31
2022-12-18T06:24:00.652Z,75.99
2022-12-18T06:26:28.877Z,76.28
2022-12-18T06:28:57.378Z,76.14
2022-12-18T06:31:26.734Z,76.03
2022-12-18T06:33:55.025Z,76.34
2022-12-18T06:36:23.362Z,76.23
2022-12-18T06:38:51.250Z,76.26
2022-12-18T06:41:21.408Z,76.38
2022-12-18T06:43:49.989Z,76.44
2022-12-18T06:46:17.899Z,76.36
2022-12-18T06:48:50.000Z,76.37
2022-12-18T06:51:19.919Z,76.65
2022-12-18T06:53:47.862Z,76.71
2022-12-18T06:56:15.781Z,76.82
2022-12-18T06:58:43.921Z,76.82
2022-12-18T07:01:13.060Z,76.74
2022-12-18T07:03:43.566Z,76.85
2022-12-18T07:06:17.541Z,76.66
2022-12-18T07:08:46.659Z,76.87
2022-12-18T07:11:15.804Z,76.88
2022-12-18T07:13:43.952Z,76.98
2022-12-18T07:16:20.804Z,77.01
2022-12-18T07:18:50.531Z,76.85
2022-12-18T07:21:20.772Z,76.99
2022-12-18T07:23:49.475Z,77.11
2022-12-18T07:26:21.407Z,76.99
2022-12-18T07:28:50.059Z,77.08
2022-12-18T07:31:22.102Z,76.92
2022-12-18T07:33:51.608Z,77.20
2022-12-18T07:36:20.820Z,77.09
2022-12-18T07:38:50.322Z,77.35
2022-12-18T07:41:19.767Z,77.19
2022-12-18T07:43:48.346Z,77.53
2022-12-18T07:46:17.846Z,77.22
2022-12-18T07:48:49.340Z,77.34
2022-12-18T07:51:19.765Z,77.44
2022-12-18T07:53:51.304Z,77.54
2022-12-18T07:56:30.099Z,77.47
2022-12-18T07:59:00.287Z,77.38
2022-12-18T08:01:28.711Z,77.59
2022-12-18T08:03:58.396Z,77.47
2022-12-18T08:06:27.184Z,77.60
2022-12-18T08:08:56.786Z,77.39
2022-12-18T08:11:26.888Z,77.36
2022-12-18T08:13:55.056Z,77.47
2022-12-18T08:16:24.911Z,77.58
2022-12-18T08:18:54.243Z,77.41
2022-12-18T08:21:25.267Z,77.26
2022-12-18T08:23:55.559Z,77.52
2022-12-18T08:26:24.379Z,77.25
2022-12-18T08:28:54.766Z,77.00
2022-12-18T08:31:23.649Z,76.85
2022-12-18T08:33:54.473Z,77.08
2022-12-18T08:36:24.921Z,77.01
2022-12-18T08:38:53.919Z,77.07
2022-12-18T08:41:22.644Z,76.93
2022-12-18T08:44:09.976Z,77.03
2022-12-18T08:46:43.385Z,76.80
2022-12-18T08:49:13.048Z,77.24
2022-12-18T08:51:41.460Z,77.03
2022-12-18T08:54:13.894Z,76.98
2022-12-18T08:56:42.268Z,77.09
2022-12-18T08:59:15.813Z,77.05
2022-12-18T09:01:48.532Z,77.05
2022-12-18T09:04:16.667Z,77.21
2022-12-18T09:06:44.647Z,77.14
2022-12-18T09:09:13.073Z,77.14
2022-12-18T09:11:41.016Z,76.85
2022-12-18T09:14:10.982Z,77.12
2022-12-18T09:16:39.382Z,77.18
2022-12-18T09:19:07.430Z,77.09
2022-12-18T09:21:37.211Z,77.14
2022-12-18T09:24:09.101Z,77.28
2022-12-18T09:26:37.991Z,77.07
2022-12-18T09:29:08.586Z,77.00
2022-12-18T09:31:38.017Z,77.04
2022-12-18T09:34:07.110Z,77.15
2022-12-18T09:36:35.375Z,76.88
2022-12-18T09:39:08.085Z,76.85
2022-12-18T09:41:48.627Z,77.02
2022-12-18T09:44:30.962Z,76.95
2022-12-18T09:47:10.669Z,76.80
2022-12-18T09:49:44.042Z,76.88
2022-12-18T09:52:41.089Z,76.99
2022-12-18T09:55:42.122Z,76.86
2022-12-18T09:58:30.243Z,76.70
2022-12-18T10:00:58.319Z,76.71
2022-12-18T10:03:27.765Z,76.56
2022-12-18T10:06:14.888Z,76.69
2022-12-18T10:09:01.793Z,76.64
2022-12-18T10:11:35.868Z,76.37
2022-12-18T10:14:31.793Z,76.71
2022-12-18T10:17:26.253Z,76.50
2022-12-18T10:20:00.707Z,76.42
2022-12-18T10:22:43.238Z,76.35
2022-12-18T10:25:36.319Z,76.81
2022-12-18T10:28:19.051Z,76.70
2022-12-18T10:30:47.766Z,76.51
2022-12-18T10:33:22.296Z,76.47
2022-12-18T10:35:52.116Z,76.45
2022-12-18T10:38:20.376Z,76.08
2022-12-18T10:40:55.538Z,75.72
2022-12-18T10:43:35.002Z,75.56
2022-12-18T10:46:06.794Z,75.50
2022-12-18T10:48:43.382Z,75.08
2022-12-18T10:51:22.200Z,75.03
2022-12-18T10:54:30.542Z,75.24
2022-12-18T10:57:29.591Z,75.63
2022-12-18T11:00:02.051Z,75.44
2022-12-18T11:02:38.980Z,75.65
2022-12-18T11:05:38.145Z,75.66
2022-12-18T11:08:07.217Z,75.68
2022-12-18T11:10:39.032Z,75.64
2022-12-18T11:13:26.145Z,75.34
2022-12-18T11:15:54.424Z,75.33
2022-12-18T11:18:33.784Z,75.43
2022-12-18T11:21:10.991Z,75.25
2022-12-18T11:23:55.034Z,75.58
2022-12-18T11:26:36.964Z,75.55
2022-12-18T11:29:24.893Z,75.72
2022-12-18T11:31:57.076Z,75.62
2022-12-18T11:34:33.093Z,75.39
2022-12-18T11:37:04.104Z,75.52
2022-12-18T11:39:37.875Z,75.19
2022-12-18T11:42:25.553Z,74.89
2022-12-18T11:45:02.533Z,74.86
2022-12-18T11:47:43.322Z,74.80
2022-12-18T11:50:19.690Z,75.05
2022-12-18T11:52:51.499Z,74.75
2022-12-18T11:55:38.191Z,74.87
2022-12-18T11:58:34.097Z,74.99
2022-12-18T12:01:24.353Z,75.23
2022-12-18T12:04:17.039Z,75.09
2022-12-18T12:07:03.599Z,75.26
2022-12-18T12:10:04.970Z,75.43
2022-12-18T12:12:48.999Z,75.19
2022-12-18T12:15:26.648Z,75.18
2022-12-18T12:18:45.890Z,75.23
2022-12-18T12:21:55.851Z,75.73
2022-12-18T12:24:48.183Z,75.73
2022-12-18T12:27:29.539Z,75.79
2022-12-18T12:30:30.732Z,75.36
2022-12-18T12:33:16.962Z,75.46
2022-12-18T12:36:07.808Z,75.66
2022-12-18T12:38:49.815Z,75.71
2022-12-18T12:41:43.755Z,76.04
2022-12-18T12:44:27.764Z,75.67
2022-12-18T12:47:00.425Z,76.08
2022-12-18T12:49:37.644Z,75.73
2022-12-18T12:52:15.573Z,75.70
2022-12-18T12:54:45.783Z,75.55
2022-12-18T12:57:23.210Z,75.78
2022-12-18T12:59:58.271Z,75.84
2022-12-18T13:02:58.007Z,75.88
2022-12-18T13:05:57.502Z,76.01
2022-12-18T13:08:33.398Z,75.95
2022-12-18T13:11:22.786Z,76.08
2022-12-18T13:13:53.633Z,76.34
2022-12-18T13:16:25.401Z,76.49
2022-12-18T13:18:55.654Z,76.49
2022-12-18T13:21:30.321Z,76.48
2022-12-18T13:24:17.059Z,76.53
2022-12-18T13:26:44.848Z,76.51
2022-12-18T13:29:43.826Z,76.64
2022-12-18T13:32:25.046Z,76.72
2022-12-18T13:35:19.710Z,76.48
2022-12-18T13:37:56.004Z,76.53
2022-12-18T13:40:39.553Z,76.54
2022-12-18T13:43:22.867Z,76.36
2022-12-18T13:46:17.785Z,76.30
2022-12-18T13:49:07.715Z,76.44
2022-12-18T13:51:36.908Z,76.37
2022-12-18T13:54:33.716Z,76.03
2022-12-18T13:57:03.280Z,76.16
2022-12-18T13:59:37.553Z,76.15
2022-12-18T14:02:23.111Z,75.99
2022-12-18T14:04:52.988Z,76.27
2022-12-18T14:07:26.712Z,76.12
2022-12-18T14:10:18.793Z,76.11
2022-12-18T14:13:00.881Z,76.05
2022-12-18T14:15:35.041Z,76.15
2022-12-18T14:18:23.898Z,76.17
2022-12-18T14:20:57.949Z,76.22
2022-12-18T14:23:43.531Z,76.23
2022-12-18T14:26:26.540Z,76.27
2022-12-18T14:28:55.763Z,76.12
2022-12-18T14:31:29.663Z,75.74
2022-12-18T14:33:57.847Z,75.77
2022-12-18T14:36:28.529Z,75.62
2022-12-18T14:38:59.382Z,75.57
2022-12-18T14:41:28.870Z,75.70
2022-12-18T14:44:07.450Z,76.03
2022-12-18T14:46:41.058Z,75.98
2022-12-18T14:49:32.600Z,75.92
2022-12-18T14:52:20.962Z,75.78
2022-12-18T14:54:49.859Z,75.38
2022-12-18T14:57:36.709Z,75.51
2022-12-18T15:00:16.265Z,75.60
2022-12-18T15:02:46.598Z,75.61
2022-12-18T15:05:14.520Z,75.48
2022-12-18T15:07:44.773Z,75.55
2022-12-18T15:10:23.298Z,75.62
2022-12-18T15:12:57.797Z,75.71
2022-12-18T15:15:35.500Z,75.47
2022-12-18T15:18:13.723Z,75.62
2022-12-18T15:21:12.418Z,75.46
2022-12-18T15:23:54.462Z,75.60
2022-12-18T15:26:23.578Z,75.93
2022-12-18T15:28:54.014Z,75.68
2022-12-18T15:31:33.708Z,75.65
2022-12-18T15:34:12.495Z,75.73
2022-12-18T15:36:41.357Z,75.74
2022-12-18T15:39:13.275Z,75.74
2022-12-18T15:42:02.089Z,75.79
2022-12-18T15:44:30.714Z,75.62
2022-12-18T15:46:58.920Z,75.75
2022-12-18T15:49:27.084Z,75.89
2022-12-18T15:52:01.242Z,76.02
2022-12-18T15:54:48.369Z,76.38
2022-12-18T15:57:25.841Z,76.33
2022-12-18T15:59:59.613Z,76.26
2022-12-18T16:02:29.787Z,76.58
2022-12-18T16:04:58.413Z,76.55
2022-12-18T16:07:29.165Z,76.36
2022-12-18T16:10:00.300Z,76.36
2022-12-18T16:12:30.486Z,76.48
2022-12-18T16:14:58.696Z,76.49
2022-12-18T16:17:27.119Z,76.46
2022-12-18T16:19:55.353Z,76.53
2022-12-18T16:22:30.612Z,76.42
2022-12-18T16:24:59.097Z,76.33
2022-12-18T16:27:27.232Z,76.44
2022-12-18T16:29:55.381Z,76.27
2022-12-18T16:32:24.502Z,76.39
2022-12-18T16:34:52.788Z,76.21
2022-12-18T16:37:31.272Z,76.28
2022-12-18T16:39:59.755Z,76.43
2022-12-18T16:42:27.912Z,76.07
2022-12-18T16:44:58.004Z,76.12
2022-12-18T16:47:26.353Z,76.29
2022-12-18T16:49:54.484Z,76.30
2022-12-18T16:52:22.735Z,76.49
2022-12-18T16:54:50.942Z,76.66
2022-12-18T16:57:21.115Z,76.69
2022-12-18T16:59:53.344Z,76.77
2022-12-18T17:02:25.774Z,76.77
2022-12-18T17:05:00.385Z,76.60
2022-12-18T17:07:28.551Z,76.51
2022-12-18T17:09:57.092Z,76.99
2022-12-18T17:12:25.265Z,77.11
2022-12-18T17:14:53.285Z,76.91
2022-12-18T17:17:23.048Z,76.76
2022-12-18T17:19:52.856Z,76.98
2022-12-18T17:22:23.268Z,77.24
2022-12-18T17:24:51.594Z,77.43
2022-12-18T17:27:19.757Z,77.51
2022-12-18T17:29:48.963Z,77.43
2022-12-18T17:32:18.483Z,77.27
2022-12-18T17:34:47.137Z,77.40
2022-12-18T17:37:15.748Z,77.19
2022-12-18T17:39:43.789Z,77.21
2022-12-18T17:42:15.684Z,77.35
2022-12-18T17:44:45.483Z,77.05
2022-12-18T17:47:15.531Z,76.83
2022-12-18T17:49:43.499Z,77.16
2022-12-18T17:52:11.445Z,77.20
2022-12-18T17:54:42.349Z,77.25
2022-12-18T17:57:10.669Z,77.27
2022-12-18T17:59:38.862Z,77.01
2022-12-18T18:02:07.537Z,77.17
2022-12-18T18:04:36.447Z,77.22
2022-12-18T18:07:04.536Z,77.21
2022-12-18T18:09:32.889Z,77.37
2022-12-18T18:12:19.289Z,77.20
2022-12-18T18:14:47.997Z,77.27
2022-12-18T18:17:15.985Z,77.34
2022-12-18T18:19:47.431Z,77.45
2022-12-18T18:22:19.610Z,77.21
2022-12-18T18:24:48.193Z,77.61
2022-12-18T18:27:16.423Z,77.48
2022-12-18T18:29:45.089Z,77.40
2022-12-18T18:32:12.907Z,77.58
2022-12-18T18:34:40.945Z,77.65
2022-12-18T18:37:10.854Z,77.58
2022-12-18T18:39:38.853Z,77.77
2022-12-18T18:42:07.075Z,77.77
2022-12-18T18:44:35.573Z,77.84
2022-12-18T18:47:05.628Z,77.96
2022-12-18T18:49:38.057Z,77.88
2022-12-18T18:52:07.498Z,78.06
2022-12-18T18:54:35.572Z,77.88
2022-12-18T18:57:20.465Z,77.79
2022-12-18T18:59:51.656Z,78.00
2022-12-18T19:02:20.040Z,77.85
2022-12-18T19:04:48.110Z,77.80
2022-12-18T19:07:29.346Z,77.98
2022-12-18T19:10:04.594Z,78.01
2022-12-18T19:12:54.903Z,78.29
2022-12-18T19:15:23.598Z,78.22
2022-12-18T19:17:51.478Z,78.47
2022-12-18T19:20:19.653Z,78.53
2022-12-18T19:22:55.282Z,78.33
2022-12-18T19:25:37.163Z,78.42
2022-12-18T19:28:15.818Z,78.34
2022-12-18T19:30:58.657Z,78.57
2022-12-18T19:33:45.928Z,78.70
2022-12-18T19:36:17.727Z,78.74
2022-12-18T19:38:46.894Z,78.98
2022-12-18T19:41:16.295Z,78.71
2022-12-18T19:43:45.026Z,78.80
2022-12-18T19:46:16.327Z,79.15
2022-12-18T19:48:45.365Z,79.13
2022-12-18T19:51:19.678Z,78.97
2022-12-18T19:53:48.251Z,79.28
2022-12-18T19:56:19.950Z,79.29
2022-12-18T19:58:49.162Z,79.26
2022-12-18T20:01:20.243Z,79.06
2022-12-18T20:03:52.200Z,79.35
2022-12-18T20:06:25.081Z,79.11
2022-12-18T20:08:57.969Z,79.26
2022-12-18T20:11:33.897Z,79.30
2022-12-18T20:14:07.027Z,79.19
2022-12-18T20:16:35.787Z,79.36
2022-12-18T20:19:03.974Z,79.44
2022-12-18T20:21:32.101Z,79.54
2022-12-18T20:24:01.547Z,79.44
2022-12-18T20:26:29.706Z,79.29
2022-12-18T20:28:58.433Z,79.22
2022-12-18T20:31:26.870Z,79.24
2022-12-18T20:34:00.173Z,79.05
2022-12-18T20:36:30.391Z,78.77
2022-12-18T20:39:01.679Z,78.91
2022-12-18T20:41:38.099Z,78.78
2022-12-18T20:44:22.236Z,78.72
2022-12-18T20:46:54.708Z,78.57
2022-12-18T20:49:24.979Z,78.69
2022-12-18T20:51:56.449Z,78.68
2022-12-18T20:54:29.256Z,78.59
2022-12-18T20:56:57.353Z,78.64
2022-12-18T20:59:26.085Z,78.83
2022-12-18T21:01:54.982Z,78.93
2022-12-18T21:04:24.442Z,79.08
2022-12-18T21:07:00.524Z,79.19
2022-12-18T21:09:37.436Z,79.08
2022-12-18T21:12:40.267Z,78.83
2022-12-18T21:15:12.192Z,78.76
2022-12-18T21:17:44.049Z,78.93
2022-12-18T21:20:17.362Z,78.49
2022-12-18T21:22:47.112Z,78.50
2022-12-18T21:25:15.255Z,78.72
2022-12-18T21:27:43.106Z,78.96
2022-12-18T21:30:11.810Z,78.93
2022-12-18T21:32:40.113Z,79.23
2022-12-18T21:35:08.464Z,79.02
2022-12-18T21:37:36.480Z,79.08
2022-12-18T21:40:06.238Z,79.00
2022-12-18T21:42:52.973Z,79.21
2022-12-18T21:45:21.253Z,78.82
2022-12-18T21:47:49.209Z,79.03
2022-12-18T21:50:17.182Z,79.05
2022-12-18T21:52:45.463Z,78.95
2022-12-18T21:55:13.283Z,78.82
2022-12-18T21:57:41.217Z,78.91
2022-12-18T22:00:19.002Z,79.08
2022-12-18T22:03:07.385Z,79.12
2022-12-18T22:05:37.682Z,79.08
2022-12-18T22:08:07.055Z,79.18
2022-12-18T22:10:36.040Z,78.97
2022-12-18T22:13:05.809Z,78.94
2022-12-18T22:15:33.760Z,79.30
2022-12-18T22:18:02.158Z,79.40
2022-12-18T22:20:30.768Z,79.29
2022-12-18T22:23:04.258Z,79.01
2022-12-18T22:25:37.273Z,79.30
2022-12-18T22:28:26.504Z,79.20
2022-12-18T22:30:59.706Z,79.11
2022-12-18T22:33:28.526Z,79.37
2022-12-18T22:35:56.668Z,79.06
2022-12-18T22:38:26.364Z,79.03
2022-12-18T22:40:54.942Z,78.97
2022-12-18T22:43:22.753Z,78.85
2022-12-18T22:45:51.159Z,78.88
2022-12-18T22:48:19.372Z,78.68
2022-12-18T22:50:47.275Z,78.65
2022-12-18T22:53:17.679Z,78.78
2022-12-18T22:55:45.602Z,78.70
2022-12-18T22:58:13.558Z,78.80
2022-12-18T23:00:42.030Z,78.64
2022-12-18T23:03:10.366Z,78.72
2022-12-18T23:05:38.515Z,78.62
2022-12-18T23:08:06.511Z,78.85
2022-12-18T23:10:37.979Z,79.00
2022-12-18T23:13:05.895Z,79.08
2022-12-18T23:15:34.438Z,78.61
2022-12-18T23:18:02.323Z,78.69
2022-12-18T23:20:30.738Z,78.56
2022-12-18T23:22:58.973Z,78.66
2022-12-18T23:25:26.915Z,78.56
2022-12-18T23:27:54.919Z,78.50
2022-12-18T23:30:22.988Z,78.37
2022-12-18T23:32:51.179Z,78.40
2022-12-18T23:35:19.515Z,78.17
2022-12-18T23:38:04.471Z,78.31
2022-12-18T23:40:32.703Z,78.46
2022-12-18T23:43:00.995Z,78.40
2022-12-18T23:45:28.911Z,78.08
2022-12-18T23:47:57.270Z,78.13
2022-12-18T23:50:29.727Z,78.25
2022-12-18T23:53:05.186Z,78.08
2022-12-18T23:55:39.995Z,77.86
2022-12-18T23:58:16.084Z,78.04
